sensor_id;sensor_type;location;lat;lon;timestamp;pressure;altitude;pressure_sealevel;temperature;humidity
12799;BME280;19250;42.646;26.980;2023-05-23T00:01:43;98584.16;;;16.58;100.00
12799;BME280;19250;42.646;26.980;2023-05-23T00:04:11;98585.56;;;17.00;100.00
12799;BME280;19250;42.646;26.980;2023-05-23T00:06:41;98584.09;;;17.17;100.00
12799;BME280;19250;42.646;26.980;2023-05-23T00:09:12;98580.38;;;17.18;100.00
12799;BME280;19250;42.646;26.980;2023-05-23T00:11:39;98580.34;;;17.31;100.00
12799;BME280;19250;42.646;26.980;2023-05-23T00:14:09;98575.91;;;16.60;100.00
12799;BME280;19250;42.646;26.980;2023-05-23T00:16:38;98580.16;;;17.13;100.00
12799;BME280;19250;42.646;26.980;2023-05-23T00:19:07;98570.56;;;17.37;100.00
12799;BME280;19250;42.646;26.980;2023-05-23T00:21:34;98572.19;;;17.58;100.00
12799;BME280;19250;42.646;26.980;2023-05-23T00:24:01;98565.09;;;17.70;100.00
12799;BME280;19250;42.646;26.980;2023-05-23T00:26:30;98578.38;;;17.65;100.00
12799;BME280;19250;42.646;26.980;2023-05-23T00:28:57;98572.22;;;17.45;100.00
12799;BME280;19250;42.646;26.980;2023-05-23T00:31:24;98575.59;;;17.84;100.00
12799;BME280;19250;42.646;26.980;2023-05-23T00:33:51;98580.53;;;17.94;100.00
12799;BME280;19250;42.646;26.980;2023-05-23T00:36:18;98568.69;;;17.44;100.00
12799;BME280;19250;42.646;26.980;2023-05-23T00:38:45;98571.59;;;17.42;100.00
12799;BME280;19250;42.646;26.980;2023-05-23T00:41:11;98575.34;;;17.35;100.00
12799;BME280;19250;42.646;26.980;2023-05-23T00:43:40;98565.81;;;17.32;100.00
12799;BME280;19250;42.646;26.980;2023-05-23T00:46:07;98554.94;;;17.52;100.00
12799;BME280;19250;42.646;26.980;2023-05-23T00:48:35;98560.78;;;17.56;100.00
12799;BME280;19250;42.646;26.980;2023-05-23T00:51:03;98550.81;;;17.50;100.00
12799;BME280;19250;42.646;26.980;2023-05-23T00:53:31;98557.22;;;17.62;100.00
12799;BME280;19250;42.646;26.980;2023-05-23T00:55:59;98548.25;;;17.74;100.00
12799;BME280;19250;42.646;26.980;2023-05-23T00:58:26;98558.75;;;17.89;100.00
12799;BME280;19250;42.646;26.980;2023-05-23T01:00:54;98554.13;;;18.03;100.00
12799;BME280;19250;42.646;26.980;2023-05-23T01:03:21;98551.63;;;18.32;100.00
12799;BME280;19250;42.646;26.980;2023-05-23T01:05:52;98547.88;;;18.33;100.00
12799;BME280;19250;42.646;26.980;2023-05-23T01:08:20;98546.94;;;18.21;100.00
12799;BME280;19250;42.646;26.980;2023-05-23T01:10:46;98542.25;;;18.10;100.00
12799;BME280;19250;42.646;26.980;2023-05-23T01:13:16;98541.38;;;18.16;100.00
12799;BME280;19250;42.646;26.980;2023-05-23T01:15:47;98539.94;;;18.38;100.00
12799;BME280;19250;42.646;26.980;2023-05-23T01:18:17;98536.53;;;18.25;100.00
12799;BME280;19250;42.646;26.980;2023-05-23T01:20:49;98534.41;;;18.02;100.00
12799;BME280;19250;42.646;26.980;2023-05-23T01:23:30;98540.88;;;18.26;100.00
12799;BME280;19250;42.646;26.980;2023-05-23T01:28:46;98530.06;;;18.26;100.00
12799;BME280;19250;42.646;26.980;2023-05-23T01:31:14;98528.84;;;17.97;100.00
12799;BME280;19250;42.646;26.980;2023-05-23T01:33:42;98539.97;;;17.76;100.00
12799;BME280;19250;42.646;26.980;2023-05-23T01:36:09;98538.72;;;17.72;100.00
12799;BME280;19250;42.646;26.980;2023-05-23T01:38:39;98536.53;;;17.93;100.00
12799;BME280;19250;42.646;26.980;2023-05-23T01:41:06;98533.31;;;17.78;100.00
12799;BME280;19250;42.646;26.980;2023-05-23T01:43:32;98534.78;;;17.74;100.00
12799;BME280;19250;42.646;26.980;2023-05-23T01:46:01;98533.72;;;17.82;100.00
12799;BME280;19250;42.646;26.980;2023-05-23T01:48:29;98537.38;;;17.94;100.00
12799;BME280;19250;42.646;26.980;2023-05-23T01:50:57;98536.91;;;18.04;100.00
12799;BME280;19250;42.646;26.980;2023-05-23T01:53:24;98526.22;;;17.39;100.00
12799;BME280;19250;42.646;26.980;2023-05-23T01:55:51;98529.88;;;17.52;100.00
12799;BME280;19250;42.646;26.980;2023-05-23T01:58:18;98541.06;;;17.62;100.00
12799;BME280;19250;42.646;26.980;2023-05-23T02:00:45;98543.94;;;17.67;100.00
12799;BME280;19250;42.646;26.980;2023-05-23T02:03:13;98544.84;;;17.92;100.00
12799;BME280;19250;42.646;26.980;2023-05-23T02:05:40;98545.16;;;18.09;100.00
12799;BME280;19250;42.646;26.980;2023-05-23T02:08:07;98546.09;;;18.21;100.00
12799;BME280;19250;42.646;26.980;2023-05-23T02:10:34;98533.66;;;17.88;100.00
12799;BME280;19250;42.646;26.980;2023-05-23T02:13:01;98552.78;;;17.80;100.00
12799;BME280;19250;42.646;26.980;2023-05-23T02:15:28;98556.69;;;17.91;100.00
12799;BME280;19250;42.646;26.980;2023-05-23T02:17:55;98556.34;;;18.12;100.00
12799;BME280;19250;42.646;26.980;2023-05-23T02:20:23;98556.38;;;16.97;100.00
12799;BME280;19250;42.646;26.980;2023-05-23T02:22:50;98554.97;;;16.62;100.00
12799;BME280;19250;42.646;26.980;2023-05-23T02:25:17;98556.38;;;16.97;100.00
12799;BME280;19250;42.646;26.980;2023-05-23T02:27:44;98553.03;;;17.08;100.00
12799;BME280;19250;42.646;26.980;2023-05-23T02:30:11;98551.47;;;17.52;100.00
12799;BME280;19250;42.646;26.980;2023-05-23T02:32:38;98551.88;;;17.93;100.00
12799;BME280;19250;42.646;26.980;2023-05-23T02:35:05;98552.03;;;18.36;100.00
12799;BME280;19250;42.646;26.980;2023-05-23T02:37:33;98552.75;;;17.87;100.00
12799;BME280;19250;42.646;26.980;2023-05-23T02:40:00;98557.38;;;18.11;100.00
12799;BME280;19250;42.646;26.980;2023-05-23T02:42:27;98555.47;;;18.18;100.00
12799;BME280;19250;42.646;26.980;2023-05-23T02:44:54;98556.34;;;18.43;100.00
12799;BME280;19250;42.646;26.980;2023-05-23T02:47:21;98559.38;;;18.54;100.00
12799;BME280;19250;42.646;26.980;2023-05-23T02:49:48;98553.25;;;18.40;100.00
12799;BME280;19250;42.646;26.980;2023-05-23T02:52:14;98551.94;;;18.18;100.00
12799;BME280;19250;42.646;26.980;2023-05-23T02:54:43;98555.06;;;18.15;100.00
12799;BME280;19250;42.646;26.980;2023-05-23T02:57:10;98550.34;;;18.35;100.00
12799;BME280;19250;42.646;26.980;2023-05-23T02:59:37;98558.59;;;18.46;100.00
12799;BME280;19250;42.646;26.980;2023-05-23T03:02:04;98559.41;;;18.47;100.00
12799;BME280;19250;42.646;26.980;2023-05-23T03:04:31;98559.38;;;18.54;100.00
12799;BME280;19250;42.646;26.980;2023-05-23T03:06:58;98561.53;;;18.38;100.00
12799;BME280;19250;42.646;26.980;2023-05-23T03:09:25;98560.50;;;18.39;100.00
12799;BME280;19250;42.646;26.980;2023-05-23T03:11:53;98562.53;;;18.44;100.00
12799;BME280;19250;42.646;26.980;2023-05-23T03:14:20;98562.03;;;18.29;100.00
12799;BME280;19250;42.646;26.980;2023-05-23T03:16:47;98564.88;;;18.40;100.00
12799;BME280;19250;42.646;26.980;2023-05-23T03:19:13;98572.69;;;18.48;100.00
12799;BME280;19250;42.646;26.980;2023-05-23T03:21:40;98569.00;;;18.50;100.00
12799;BME280;19250;42.646;26.980;2023-05-23T03:24:08;98576.94;;;17.62;100.00
12799;BME280;19250;42.646;26.980;2023-05-23T03:26:36;98572.56;;;17.68;100.00
12799;BME280;19250;42.646;26.980;2023-05-23T03:29:04;98576.50;;;17.72;100.00
12799;BME280;19250;42.646;26.980;2023-05-23T03:31:31;98566.06;;;17.24;100.00
12799;BME280;19250;42.646;26.980;2023-05-23T03:33:58;98562.44;;;17.50;100.00
12799;BME280;19250;42.646;26.980;2023-05-23T03:36:25;98563.97;;;17.26;100.00
12799;BME280;19250;42.646;26.980;2023-05-23T03:38:52;98576.69;;;18.08;100.00
12799;BME280;19250;42.646;26.980;2023-05-23T03:41:19;98579.34;;;18.53;100.00
12799;BME280;19250;42.646;26.980;2023-05-23T03:43:46;98574.94;;;18.58;100.00
12799;BME280;19250;42.646;26.980;2023-05-23T03:46:14;98577.75;;;18.38;100.00
12799;BME280;19250;42.646;26.980;2023-05-23T03:48:41;98572.75;;;17.73;100.00
12799;BME280;19250;42.646;26.980;2023-05-23T03:51:08;98574.94;;;18.27;100.00
12799;BME280;19250;42.646;26.980;2023-05-23T03:53:35;98576.44;;;18.47;100.00
12799;BME280;19250;42.646;26.980;2023-05-23T03:56:02;98574.63;;;18.10;100.00
12799;BME280;19250;42.646;26.980;2023-05-23T03:58:29;98570.56;;;17.94;100.00
12799;BME280;19250;42.646;26.980;2023-05-23T04:00:55;98573.81;;;18.10;100.00
12799;BME280;19250;42.646;26.980;2023-05-23T04:03:24;98570.19;;;18.22;100.00
12799;BME280;19250;42.646;26.980;2023-05-23T04:05:51;98578.91;;;18.24;100.00
12799;BME280;19250;42.646;26.980;2023-05-23T04:08:18;98579.78;;;18.50;100.00
12799;BME280;19250;42.646;26.980;2023-05-23T04:10:46;98580.06;;;18.66;100.00
12799;BME280;19250;42.646;26.980;2023-05-23T04:13:13;98582.91;;;18.96;100.00
12799;BME280;19250;42.646;26.980;2023-05-23T04:15:40;98579.25;;;19.09;100.00
12799;BME280;19250;42.646;26.980;2023-05-23T04:18:07;98585.88;;;18.88;100.00
12799;BME280;19250;42.646;26.980;2023-05-23T04:20:35;98578.69;;;18.82;100.00
12799;BME280;19250;42.646;26.980;2023-05-23T04:23:02;98580.38;;;18.52;100.00
12799;BME280;19250;42.646;26.980;2023-05-23T04:25:29;98578.28;;;18.54;100.00
12799;BME280;19250;42.646;26.980;2023-05-23T04:27:56;98576.13;;;18.37;100.00
12799;BME280;19250;42.646;26.980;2023-05-23T04:30:24;98585.06;;;18.63;100.00
12799;BME280;19250;42.646;26.980;2023-05-23T04:32:50;98586.19;;;18.80;100.00
12799;BME280;19250;42.646;26.980;2023-05-23T04:35:17;98589.81;;;18.92;100.00
12799;BME280;19250;42.646;26.980;2023-05-23T04:37:46;98589.91;;;18.79;100.00
12799;BME280;19250;42.646;26.980;2023-05-23T04:40:13;98591.53;;;18.86;100.00
12799;BME280;19250;42.646;26.980;2023-05-23T04:42:40;98592.50;;;18.92;100.00
12799;BME280;19250;42.646;26.980;2023-05-23T04:45:09;98590.06;;;18.84;100.00
12799;BME280;19250;42.646;26.980;2023-05-23T04:47:36;98603.03;;;19.00;100.00
12799;BME280;19250;42.646;26.980;2023-05-23T04:50:02;98595.00;;;19.12;100.00
12799;BME280;19250;42.646;26.980;2023-05-23T04:52:29;98604.91;;;18.99;100.00
12799;BME280;19250;42.646;26.980;2023-05-23T04:54:59;98611.47;;;19.10;100.00
12799;BME280;19250;42.646;26.980;2023-05-23T04:57:26;98602.41;;;19.23;100.00
12799;BME280;19250;42.646;26.980;2023-05-23T04:59:53;98606.72;;;19.48;100.00
12799;BME280;19250;42.646;26.980;2023-05-23T05:02:21;98618.44;;;19.18;100.00
12799;BME280;19250;42.646;26.980;2023-05-23T05:04:48;98614.63;;;19.50;100.00
12799;BME280;19250;42.646;26.980;2023-05-23T05:07:15;98620.38;;;19.35;100.00
12799;BME280;19250;42.646;26.980;2023-05-23T05:09:42;98619.06;;;19.63;100.00
12799;BME280;19250;42.646;26.980;2023-05-23T05:12:10;98617.53;;;19.85;100.00
12799;BME280;19250;42.646;26.980;2023-05-23T05:14:37;98620.44;;;20.01;100.00
12799;BME280;19250;42.646;26.980;2023-05-23T05:17:04;98616.00;;;20.07;100.00
12799;BME280;19250;42.646;26.980;2023-05-23T05:19:31;98624.97;;;20.37;100.00
12799;BME280;19250;42.646;26.980;2023-05-23T05:21:58;98614.00;;;20.32;100.00
12799;BME280;19250;42.646;26.980;2023-05-23T05:24:25;98613.97;;;20.62;100.00
12799;BME280;19250;42.646;26.980;2023-05-23T05:26:53;98619.31;;;20.92;100.00
12799;BME280;19250;42.646;26.980;2023-05-23T05:29:21;98622.75;;;20.99;100.00
12799;BME280;19250;42.646;26.980;2023-05-23T05:31:48;98615.44;;;20.76;100.00
12799;BME280;19250;42.646;26.980;2023-05-23T05:34:16;98631.53;;;21.12;100.00
12799;BME280;19250;42.646;26.980;2023-05-23T05:36:43;98617.84;;;20.54;100.00
12799;BME280;19250;42.646;26.980;2023-05-23T05:39:12;98624.16;;;21.01;100.00
12799;BME280;19250;42.646;26.980;2023-05-23T05:41:39;98626.56;;;21.21;100.00
12799;BME280;19250;42.646;26.980;2023-05-23T05:44:06;98623.28;;;21.19;100.00
12799;BME280;19250;42.646;26.980;2023-05-23T05:46:34;98632.25;;;20.67;100.00
12799;BME280;19250;42.646;26.980;2023-05-23T05:49:01;98632.06;;;21.03;100.00
12799;BME280;19250;42.646;26.980;2023-05-23T05:51:27;98638.25;;;20.69;100.00
12799;BME280;19250;42.646;26.980;2023-05-23T05:53:55;98637.44;;;20.80;100.00
12799;BME280;19250;42.646;26.980;2023-05-23T05:56:22;98638.25;;;21.22;99.58
12799;BME280;19250;42.646;26.980;2023-05-23T05:58:50;98636.91;;;21.47;95.29
12799;BME280;19250;42.646;26.980;2023-05-23T06:01:17;98644.34;;;21.29;98.12
12799;BME280;19250;42.646;26.980;2023-05-23T06:03:45;98647.03;;;21.05;96.87
12799;BME280;19250;42.646;26.980;2023-05-23T06:06:12;98642.44;;;21.06;98.82
12799;BME280;19250;42.646;26.980;2023-05-23T06:08:39;98642.91;;;21.03;99.68
12799;BME280;19250;42.646;26.980;2023-05-23T06:11:06;98645.84;;;21.01;100.00
12799;BME280;19250;42.646;26.980;2023-05-23T06:13:33;98652.84;;;21.32;98.82
12799;BME280;19250;42.646;26.980;2023-05-23T06:16:00;98651.56;;;21.58;100.00
12799;BME280;19250;42.646;26.980;2023-05-23T06:18:27;98653.78;;;21.26;98.78
12799;BME280;19250;42.646;26.980;2023-05-23T06:20:55;98653.09;;;21.42;91.85
12799;BME280;19250;42.646;26.980;2023-05-23T06:23:22;98651.16;;;21.08;95.16
12799;BME280;19250;42.646;26.980;2023-05-23T06:25:49;98655.66;;;21.26;89.23
12799;BME280;19250;42.646;26.980;2023-05-23T06:28:15;98660.53;;;21.24;90.48
12799;BME280;19250;42.646;26.980;2023-05-23T06:30:42;98663.94;;;21.31;89.83
12799;BME280;19250;42.646;26.980;2023-05-23T06:33:09;98672.53;;;21.16;88.81
12799;BME280;19250;42.646;26.980;2023-05-23T06:35:36;98664.06;;;21.47;84.50
12799;BME280;19250;42.646;26.980;2023-05-23T06:38:04;98666.34;;;22.13;79.96
12799;BME280;19250;42.646;26.980;2023-05-23T06:40:31;98666.22;;;22.08;77.89
12799;BME280;19250;42.646;26.980;2023-05-23T06:42:58;98668.63;;;22.61;76.47
12799;BME280;19250;42.646;26.980;2023-05-23T06:45:25;98662.44;;;22.94;75.07
12799;BME280;19250;42.646;26.980;2023-05-23T06:47:51;98656.78;;;23.67;70.70
12799;BME280;19250;42.646;26.980;2023-05-23T06:50:18;98658.78;;;23.55;70.65
12799;BME280;19250;42.646;26.980;2023-05-23T06:52:45;98658.06;;;23.43;69.33
12799;BME280;19250;42.646;26.980;2023-05-23T06:55:13;98662.59;;;23.21;70.75
12799;BME280;19250;42.646;26.980;2023-05-23T06:57:43;98659.97;;;23.43;69.04
12799;BME280;19250;42.646;26.980;2023-05-23T07:00:10;98643.94;;;23.63;66.46
12799;BME280;19250;42.646;26.980;2023-05-23T07:02:38;98650.03;;;23.92;64.46
12799;BME280;19250;42.646;26.980;2023-05-23T07:05:05;98648.72;;;23.72;66.77
12799;BME280;19250;42.646;26.980;2023-05-23T07:07:32;98640.41;;;23.84;67.22
12799;BME280;19250;42.646;26.980;2023-05-23T07:09:58;98646.91;;;23.61;67.98
12799;BME280;19250;42.646;26.980;2023-05-23T07:12:27;98646.06;;;23.61;68.09
12799;BME280;19250;42.646;26.980;2023-05-23T07:14:53;98646.91;;;24.48;62.08
12799;BME280;19250;42.646;26.980;2023-05-23T07:17:20;98652.75;;;24.35;62.34
12799;BME280;19250;42.646;26.980;2023-05-23T07:19:47;98640.91;;;24.73;58.24
12799;BME280;19250;42.646;26.980;2023-05-23T07:22:14;98639.81;;;25.01;55.94
12799;BME280;19250;42.646;26.980;2023-05-23T07:24:41;98633.63;;;25.10;56.15
12799;BME280;19250;42.646;26.980;2023-05-23T07:27:08;98633.84;;;24.50;57.99
12799;BME280;19250;42.646;26.980;2023-05-23T07:29:36;98642.28;;;24.49;55.77
12799;BME280;19250;42.646;26.980;2023-05-23T07:32:03;98631.16;;;24.07;57.87
12799;BME280;19250;42.646;26.980;2023-05-23T07:34:30;98631.59;;;24.42;55.04
12799;BME280;19250;42.646;26.980;2023-05-23T07:36:57;98635.66;;;23.74;59.84
12799;BME280;19250;42.646;26.980;2023-05-23T07:39:24;98632.66;;;23.54;61.53
12799;BME280;19250;42.646;26.980;2023-05-23T07:41:52;98628.97;;;23.82;57.47
12799;BME280;19250;42.646;26.980;2023-05-23T07:44:19;98630.22;;;23.74;55.83
12799;BME280;19250;42.646;26.980;2023-05-23T07:46:47;98631.22;;;23.68;55.69
12799;BME280;19250;42.646;26.980;2023-05-23T07:49:14;98629.22;;;23.09;60.46
12799;BME280;19250;42.646;26.980;2023-05-23T07:51:41;98630.13;;;22.98;61.99
12799;BME280;19250;42.646;26.980;2023-05-23T07:54:08;98625.00;;;22.85;60.21
12799;BME280;19250;42.646;26.980;2023-05-23T07:56:35;98632.25;;;22.79;63.59
12799;BME280;19250;42.646;26.980;2023-05-23T07:59:03;98638.34;;;23.03;60.07
12799;BME280;19250;42.646;26.980;2023-05-23T08:01:30;98634.25;;;23.17;59.90
12799;BME280;19250;42.646;26.980;2023-05-23T08:03:58;98635.06;;;23.01;61.17
12799;BME280;19250;42.646;26.980;2023-05-23T08:06:25;98623.78;;;22.75;61.28
12799;BME280;19250;42.646;26.980;2023-05-23T08:08:52;98637.78;;;22.67;64.44
12799;BME280;19250;42.646;26.980;2023-05-23T08:11:19;98633.84;;;22.63;63.57
12799;BME280;19250;42.646;26.980;2023-05-23T08:13:46;98629.06;;;22.99;62.13
12799;BME280;19250;42.646;26.980;2023-05-23T08:16:12;98629.88;;;22.83;64.01
12799;BME280;19250;42.646;26.980;2023-05-23T08:18:39;98624.94;;;23.13;60.88
12799;BME280;19250;42.646;26.980;2023-05-23T08:21:08;98627.84;;;22.90;62.72
12799;BME280;19250;42.646;26.980;2023-05-23T08:23:35;98622.22;;;23.13;61.04
12799;BME280;19250;42.646;26.980;2023-05-23T08:26:01;98621.66;;;22.77;62.87
12799;BME280;19250;42.646;26.980;2023-05-23T08:28:28;98622.56;;;22.55;64.18
12799;BME280;19250;42.646;26.980;2023-05-23T08:30:55;98617.28;;;22.76;64.96
12799;BME280;19250;42.646;26.980;2023-05-23T08:33:22;98622.50;;;23.50;61.81
12799;BME280;19250;42.646;26.980;2023-05-23T08:35:49;98621.06;;;23.85;60.24
12799;BME280;19250;42.646;26.980;2023-05-23T08:38:17;98611.38;;;23.73;61.08
12799;BME280;19250;42.646;26.980;2023-05-23T08:40:48;98624.03;;;23.41;62.04
12799;BME280;19250;42.646;26.980;2023-05-23T08:43:15;98628.03;;;23.38;61.68
12799;BME280;19250;42.646;26.980;2023-05-23T08:45:42;98622.66;;;23.60;62.19
12799;BME280;19250;42.646;26.980;2023-05-23T08:48:10;98617.56;;;23.47;63.17
12799;BME280;19250;42.646;26.980;2023-05-23T08:50:39;98628.69;;;23.83;60.93
12799;BME280;19250;42.646;26.980;2023-05-23T08:53:08;98621.53;;;23.99;59.67
12799;BME280;19250;42.646;26.980;2023-05-23T08:55:38;98630.47;;;24.16;56.76
12799;BME280;19250;42.646;26.980;2023-05-23T08:58:05;98640.38;;;24.76;52.77
12799;BME280;19250;42.646;26.980;2023-05-23T09:00:32;98641.31;;;24.60;52.40
12799;BME280;19250;42.646;26.980;2023-05-23T09:02:59;98630.94;;;24.62;52.52
12799;BME280;19250;42.646;26.980;2023-05-23T09:05:26;98634.66;;;24.24;53.76
12799;BME280;19250;42.646;26.980;2023-05-23T09:07:53;98630.59;;;24.05;53.94
12799;BME280;19250;42.646;26.980;2023-05-23T09:10:21;98630.88;;;24.52;54.99
12799;BME280;19250;42.646;26.980;2023-05-23T09:12:49;98634.56;;;24.94;52.00
12799;BME280;19250;42.646;26.980;2023-05-23T09:15:16;98634.28;;;25.69;48.11
12799;BME280;19250;42.646;26.980;2023-05-23T09:17:43;98633.66;;;25.52;47.85
12799;BME280;19250;42.646;26.980;2023-05-23T09:20:12;98630.00;;;25.41;48.58
12799;BME280;19250;42.646;26.980;2023-05-23T09:22:39;98628.72;;;26.06;47.89
12799;BME280;19250;42.646;26.980;2023-05-23T09:25:06;98624.22;;;26.42;46.68
12799;BME280;19250;42.646;26.980;2023-05-23T09:27:34;98623.75;;;27.36;44.26
12799;BME280;19250;42.646;26.980;2023-05-23T09:30:07;98630.31;;;27.10;44.10
12799;BME280;19250;42.646;26.980;2023-05-23T09:32:35;98637.09;;;25.84;44.91
12799;BME280;19250;42.646;26.980;2023-05-23T09:35:04;98635.19;;;25.38;47.46
12799;BME280;19250;42.646;26.980;2023-05-23T09:37:33;98633.16;;;25.23;48.34
12799;BME280;19250;42.646;26.980;2023-05-23T09:40:01;98631.75;;;24.84;50.17
12799;BME280;19250;42.646;26.980;2023-05-23T09:42:32;98631.31;;;24.17;54.06
12799;BME280;19250;42.646;26.980;2023-05-23T09:44:59;98631.34;;;24.22;55.18
12799;BME280;19250;42.646;26.980;2023-05-23T09:47:28;98639.59;;;23.83;58.30
12799;BME280;19250;42.646;26.980;2023-05-23T09:49:55;98630.63;;;24.10;58.46
12799;BME280;19250;42.646;26.980;2023-05-23T09:52:23;98636.25;;;24.20;59.11
12799;BME280;19250;42.646;26.980;2023-05-23T09:54:50;98615.06;;;24.05;59.88
12799;BME280;19250;42.646;26.980;2023-05-23T09:57:18;98632.44;;;24.21;61.34
12799;BME280;19250;42.646;26.980;2023-05-23T09:59:51;98631.84;;;24.19;61.92
12799;BME280;19250;42.646;26.980;2023-05-23T10:02:42;98630.03;;;24.24;61.91
12799;BME280;19250;42.646;26.980;2023-05-23T10:05:29;98638.72;;;24.00;59.33
12799;BME280;19250;42.646;26.980;2023-05-23T10:07:58;98631.03;;;23.97;60.16
12799;BME280;19250;42.646;26.980;2023-05-23T10:10:30;98637.81;;;24.64;56.76
12799;BME280;19250;42.646;26.980;2023-05-23T10:13:01;98634.06;;;25.34;53.81
12799;BME280;19250;42.646;26.980;2023-05-23T10:15:37;98635.19;;;25.01;54.46
12799;BME280;19250;42.646;26.980;2023-05-23T10:18:11;98631.75;;;25.16;52.70
12799;BME280;19250;42.646;26.980;2023-05-23T10:20:42;98632.91;;;24.93;52.32
12799;BME280;19250;42.646;26.980;2023-05-23T10:23:14;98635.47;;;24.78;53.50
12799;BME280;19250;42.646;26.980;2023-05-23T10:25:43;98630.44;;;24.38;55.47
12799;BME280;19250;42.646;26.980;2023-05-23T10:28:11;98599.41;;;24.39;56.97
12799;BME280;19250;42.646;26.980;2023-05-23T10:30:39;98625.63;;;24.45;56.84
12799;BME280;19250;42.646;26.980;2023-05-23T10:33:08;98619.72;;;25.17;51.95
12799;BME280;19250;42.646;26.980;2023-05-23T10:35:46;98630.38;;;25.50;49.44
12799;BME280;19250;42.646;26.980;2023-05-23T10:38:25;98626.13;;;25.74;49.05
12799;BME280;19250;42.646;26.980;2023-05-23T10:41:01;98624.84;;;25.45;49.22
12799;BME280;19250;42.646;26.980;2023-05-23T10:43:38;98623.03;;;25.19;50.02
12799;BME280;19250;42.646;26.980;2023-05-23T10:46:07;98620.53;;;25.54;48.67
12799;BME280;19250;42.646;26.980;2023-05-23T10:48:41;98624.72;;;25.72;47.59
12799;BME280;19250;42.646;26.980;2023-05-23T10:51:09;98622.97;;;25.51;48.47
12799;BME280;19250;42.646;26.980;2023-05-23T10:53:38;98616.19;;;25.53;48.07
12799;BME280;19250;42.646;26.980;2023-05-23T10:56:06;98614.38;;;26.46;45.31
12799;BME280;19250;42.646;26.980;2023-05-23T10:58:34;98621.53;;;27.53;42.46
12799;BME280;19250;42.646;26.980;2023-05-23T11:01:05;98619.69;;;28.18;40.43
12799;BME280;19250;42.646;26.980;2023-05-23T11:03:48;98611.31;;;28.43;40.55
12799;BME280;19250;42.646;26.980;2023-05-23T11:06:28;98615.44;;;27.81;40.49
12799;BME280;19250;42.646;26.980;2023-05-23T11:09:02;98609.25;;;27.05;41.53
12799;BME280;19250;42.646;26.980;2023-05-23T11:12:00;98605.09;;;27.38;41.19
12799;BME280;19250;42.646;26.980;2023-05-23T11:14:51;98601.63;;;28.12;40.34
12799;BME280;19250;42.646;26.980;2023-05-23T11:17:29;98604.81;;;27.60;40.19
12799;BME280;19250;42.646;26.980;2023-05-23T11:20:03;98607.59;;;27.29;42.76
12799;BME280;19250;42.646;26.980;2023-05-23T11:22:32;98597.81;;;27.97;40.90
12799;BME280;19250;42.646;26.980;2023-05-23T11:25:00;98600.41;;;27.58;41.06
12799;BME280;19250;42.646;26.980;2023-05-23T11:27:30;98601.19;;;28.82;39.46
12799;BME280;19250;42.646;26.980;2023-05-23T11:30:04;98601.56;;;29.62;38.33
12799;BME280;19250;42.646;26.980;2023-05-23T11:32:33;98611.84;;;29.51;37.48
12799;BME280;19250;42.646;26.980;2023-05-23T11:35:01;98607.44;;;28.49;39.00
12799;BME280;19250;42.646;26.980;2023-05-23T11:37:29;98612.75;;;28.79;38.86
12799;BME280;19250;42.646;26.980;2023-05-23T11:39:56;98612.97;;;28.44;38.95
12799;BME280;19250;42.646;26.980;2023-05-23T11:42:23;98610.28;;;28.34;39.42
12799;BME280;19250;42.646;26.980;2023-05-23T11:44:50;98606.41;;;28.40;39.99
12799;BME280;19250;42.646;26.980;2023-05-23T11:47:18;98610.03;;;27.61;40.91
12799;BME280;19250;42.646;26.980;2023-05-23T11:49:45;98612.53;;;26.92;41.28
12799;BME280;19250;42.646;26.980;2023-05-23T11:52:12;98609.78;;;27.17;41.47
12799;BME280;19250;42.646;26.980;2023-05-23T11:54:41;98607.53;;;28.34;39.56
12799;BME280;19250;42.646;26.980;2023-05-23T11:57:08;98600.97;;;29.41;37.30
12799;BME280;19250;42.646;26.980;2023-05-23T11:59:35;98604.69;;;29.22;37.40
12799;BME280;19250;42.646;26.980;2023-05-23T12:02:03;98601.34;;;29.82;36.34
12799;BME280;19250;42.646;26.980;2023-05-23T12:04:31;98598.88;;;30.04;35.32
12799;BME280;19250;42.646;26.980;2023-05-23T12:07:03;98599.75;;;29.24;36.75
12799;BME280;19250;42.646;26.980;2023-05-23T12:09:30;98604.56;;;29.37;35.69
12799;BME280;19250;42.646;26.980;2023-05-23T12:11:59;98593.91;;;29.30;34.91
12799;BME280;19250;42.646;26.980;2023-05-23T12:14:28;98596.75;;;29.20;35.61
12799;BME280;19250;42.646;26.980;2023-05-23T12:16:55;98603.78;;;29.60;35.36
12799;BME280;19250;42.646;26.980;2023-05-23T12:19:23;98605.00;;;28.42;36.48
12799;BME280;19250;42.646;26.980;2023-05-23T12:21:50;98598.56;;;27.14;39.32
12799;BME280;19250;42.646;26.980;2023-05-23T12:24:19;98596.53;;;26.18;41.63
12799;BME280;19250;42.646;26.980;2023-05-23T12:26:48;98598.22;;;25.62;43.38
12799;BME280;19250;42.646;26.980;2023-05-23T12:29:17;98593.47;;;25.06;52.42
12799;BME280;19250;42.646;26.980;2023-05-23T12:31:48;98587.22;;;24.78;56.71
12799;BME280;19250;42.646;26.980;2023-05-23T12:34:16;98589.97;;;25.52;53.48
12799;BME280;19250;42.646;26.980;2023-05-23T12:36:43;98597.06;;;25.53;51.69
12799;BME280;19250;42.646;26.980;2023-05-23T12:39:10;98589.31;;;24.98;55.43
12799;BME280;19250;42.646;26.980;2023-05-23T12:41:37;98579.09;;;24.03;61.88
12799;BME280;19250;42.646;26.980;2023-05-23T12:44:07;98588.91;;;23.82;64.98
12799;BME280;19250;42.646;26.980;2023-05-23T12:46:35;98586.06;;;23.51;67.36
12799;BME280;19250;42.646;26.980;2023-05-23T12:49:02;98588.91;;;23.22;70.75
12799;BME280;19250;42.646;26.980;2023-05-23T12:51:29;98574.53;;;22.60;75.46
12799;BME280;19250;42.646;26.980;2023-05-23T12:53:56;98581.31;;;22.41;85.48